sensor_id;sensor_type;location;lat;lon;timestamp;pressure;altitude;pressure_sealevel;temperature;humidity
36092;BME280;22147;52.388;13.390;2022-07-30T00:01:32;101011.84;;;18.67;54.91
36092;BME280;22147;52.388;13.390;2022-07-30T00:04:02;101008.16;;;18.63;54.89
36092;BME280;22147;52.388;13.390;2022-07-30T00:06:30;101004.47;;;18.59;54.99
36092;BME280;22147;52.388;13.390;2022-07-30T00:08:58;101004.31;;;18.51;55.48
36092;BME280;22147;52.388;13.390;2022-07-30T00:11:25;101006.25;;;18.47;55.60
36092;BME280;22147;52.388;13.390;2022-07-30T00:13:54;101004.59;;;18.43;55.79
36092;BME280;22147;52.388;13.390;2022-07-30T00:16:22;101014.16;;;18.38;56.22
36092;BME280;22147;52.388;13.390;2022-07-30T00:18:49;101006.03;;;18.33;56.70
36092;BME280;22147;52.388;13.390;2022-07-30T00:21:17;101008.78;;;18.29;56.75
36092;BME280;22147;52.388;13.390;2022-07-30T00:24:02;101016.41;;;18.29;56.99
36092;BME280;22147;52.388;13.390;2022-07-30T00:26:30;101018.25;;;18.21;58.09
36092;BME280;22147;52.388;13.390;2022-07-30T00:28:57;101010.06;;;18.13;58.12
36092;BME280;22147;52.388;13.390;2022-07-30T00:31:24;101005.13;;;18.06;59.24
36092;BME280;22147;52.388;13.390;2022-07-30T00:33:52;101010.69;;;18.02;58.46
36092;BME280;22147;52.388;13.390;2022-07-30T00:36:19;101009.78;;;17.98;58.60
36092;BME280;22147;52.388;13.390;2022-07-30T00:38:46;101006.09;;;17.94;59.07
36092;BME280;22147;52.388;13.390;2022-07-30T00:41:13;101009.66;;;17.91;59.32
36092;BME280;22147;52.388;13.390;2022-07-30T00:43:42;101011.19;;;17.88;60.15
36092;BME280;22147;52.388;13.390;2022-07-30T00:46:09;101012.31;;;17.84;60.16
36092;BME280;22147;52.388;13.390;2022-07-30T00:48:37;101004.63;;;17.81;60.45
36092;BME280;22147;52.388;13.390;2022-07-30T00:51:04;101002.09;;;17.76;60.41
36092;BME280;22147;52.388;13.390;2022-07-30T00:53:32;101002.09;;;17.76;60.63
36092;BME280;22147;52.388;13.390;2022-07-30T00:56:01;100995.31;;;17.77;60.32
36092;BME280;22147;52.388;13.390;2022-07-30T00:58:29;100996.56;;;17.79;60.17
36092;BME280;22147;52.388;13.390;2022-07-30T01:00:56;101002.97;;;17.80;60.04
36092;BME280;22147;52.388;13.390;2022-07-30T01:03:24;100999.47;;;17.83;60.44
36092;BME280;22147;52.388;13.390;2022-07-30T01:05:51;100996.66;;;17.83;60.68
36092;BME280;22147;52.388;13.390;2022-07-30T01:08:18;100994.66;;;17.83;60.44
36092;BME280;22147;52.388;13.390;2022-07-30T01:10:45;100993.94;;;17.86;60.21
36092;BME280;22147;52.388;13.390;2022-07-30T01:13:12;100995.53;;;17.87;59.88
36092;BME280;22147;52.388;13.390;2022-07-30T01:15:40;100999.25;;;17.92;59.91
36092;BME280;22147;52.388;13.390;2022-07-30T01:18:11;100987.19;;;17.91;60.06
36092;BME280;22147;52.388;13.390;2022-07-30T01:21:06;100993.63;;;17.92;60.35
36092;BME280;22147;52.388;13.390;2022-07-30T01:23:45;100989.94;;;17.87;60.97
36092;BME280;22147;52.388;13.390;2022-07-30T01:26:20;100993.38;;;17.81;61.65
36092;BME280;22147;52.388;13.390;2022-07-30T01:28:53;100994.28;;;17.85;60.72
36092;BME280;22147;52.388;13.390;2022-07-30T01:31:25;100991.03;;;17.83;60.77
36092;BME280;22147;52.388;13.390;2022-07-30T01:33:59;100986.22;;;17.83;61.83
36092;BME280;22147;52.388;13.390;2022-07-30T01:36:30;100995.38;;;17.80;61.68
36092;BME280;22147;52.388;13.390;2022-07-30T01:39:00;100986.06;;;17.76;61.64
36092;BME280;22147;52.388;13.390;2022-07-30T01:41:30;100987.59;;;17.74;62.05
36092;BME280;22147;52.388;13.390;2022-07-30T01:44:00;100984.78;;;17.74;62.44
36092;BME280;22147;52.388;13.390;2022-07-30T01:46:30;100979.56;;;17.72;63.28
36092;BME280;22147;52.388;13.390;2022-07-30T01:49:01;100980.69;;;17.67;62.92
36092;BME280;22147;52.388;13.390;2022-07-30T01:51:30;100981.41;;;17.64;63.73
36092;BME280;22147;52.388;13.390;2022-07-30T01:54:10;100983.06;;;17.65;63.58
36092;BME280;22147;52.388;13.390;2022-07-30T01:56:43;100988.66;;;17.65;63.78
36092;BME280;22147;52.388;13.390;2022-07-30T01:59:17;100987.84;;;17.65;63.23
36092;BME280;22147;52.388;13.390;2022-07-30T02:01:46;100991.03;;;17.63;64.24
36092;BME280;22147;52.388;13.390;2022-07-30T02:04:14;100989.03;;;17.64;63.37
36092;BME280;22147;52.388;13.390;2022-07-30T02:07:00;100993.84;;;17.63;64.80
36092;BME280;22147;52.388;13.390;2022-07-30T02:09:42;100994.13;;;17.58;65.08
36092;BME280;22147;52.388;13.390;2022-07-30T02:12:22;100994.88;;;17.55;64.15
36092;BME280;22147;52.388;13.390;2022-07-30T02:15:09;100986.72;;;17.50;64.94
36092;BME280;22147;52.388;13.390;2022-07-30T02:18:02;100984.31;;;17.48;65.51
36092;BME280;22147;52.388;13.390;2022-07-30T02:20:36;100987.84;;;17.45;65.23
36092;BME280;22147;52.388;13.390;2022-07-30T02:23:18;100983.41;;;17.44;65.29
36092;BME280;22147;52.388;13.390;2022-07-30T02:25:49;100983.88;;;17.46;65.48
36092;BME280;22147;52.388;13.390;2022-07-30T02:28:20;100993.00;;;17.43;66.24
36092;BME280;22147;52.388;13.390;2022-07-30T02:30:53;100990.19;;;17.43;66.08
36092;BME280;22147;52.388;13.390;2022-07-30T02:33:36;100992.13;;;17.39;66.12
36092;BME280;22147;52.388;13.390;2022-07-30T02:36:17;100988.38;;;17.32;66.59
36092;BME280;22147;52.388;13.390;2022-07-30T02:38:48;100983.03;;;17.26;66.48
36092;BME280;22147;52.388;13.390;2022-07-30T02:41:24;100981.78;;;17.24;66.98
36092;BME280;22147;52.388;13.390;2022-07-30T02:43:56;100982.06;;;17.19;67.13
36092;BME280;22147;52.388;13.390;2022-07-30T02:46:26;100979.63;;;17.17;66.75
36092;BME280;22147;52.388;13.390;2022-07-30T02:48:57;100978.44;;;17.18;66.77
36092;BME280;22147;52.388;13.390;2022-07-30T02:51:27;100972.81;;;17.18;66.81
36092;BME280;22147;52.388;13.390;2022-07-30T02:53:57;100981.53;;;17.13;67.10
36092;BME280;22147;52.388;13.390;2022-07-30T02:56:28;100978.59;;;17.06;67.90
36092;BME280;22147;52.388;13.390;2022-07-30T02:59:00;100973.25;;;17.01;67.84
36092;BME280;22147;52.388;13.390;2022-07-30T03:01:32;100976.78;;;16.98;68.82
36092;BME280;22147;52.388;13.390;2022-07-30T03:04:04;100971.44;;;16.93;69.13
36092;BME280;22147;52.388;13.390;2022-07-30T03:06:34;100978.06;;;16.84;69.12
36092;BME280;22147;52.388;13.390;2022-07-30T03:09:04;100982.69;;;16.77;68.83
36092;BME280;22147;52.388;13.390;2022-07-30T03:11:33;100985.84;;;16.75;69.41
36092;BME280;22147;52.388;13.390;2022-07-30T03:14:02;100983.84;;;16.76;69.15
36092;BME280;22147;52.388;13.390;2022-07-30T03:16:36;100983.31;;;16.70;70.03
36092;BME280;22147;52.388;13.390;2022-07-30T03:19:09;100990.44;;;16.67;70.01
36092;BME280;22147;52.388;13.390;2022-07-30T03:21:40;100993.09;;;16.60;70.31
36092;BME280;22147;52.388;13.390;2022-07-30T03:24:11;100999.41;;;16.57;70.38
36092;BME280;22147;52.388;13.390;2022-07-30T03:26:43;100999.41;;;16.57;70.33
36092;BME280;22147;52.388;13.390;2022-07-30T03:29:15;101015.34;;;16.53;71.02
36092;BME280;22147;52.388;13.390;2022-07-30T03:31:48;101018.88;;;16.50;71.93
36092;BME280;22147;52.388;13.390;2022-07-30T03:34:19;101020.06;;;16.49;72.70
36092;BME280;22147;52.388;13.390;2022-07-30T03:36:49;101017.84;;;16.42;73.67
36092;BME280;22147;52.388;13.390;2022-07-30T03:39:18;101018.31;;;16.44;72.73
36092;BME280;22147;52.388;13.390;2022-07-30T03:41:48;101014.81;;;16.47;73.22
36092;BME280;22147;52.388;13.390;2022-07-30T03:44:16;101013.81;;;16.56;73.73
36092;BME280;22147;52.388;13.390;2022-07-30T03:46:45;101008.84;;;16.49;72.91
36092;BME280;22147;52.388;13.390;2022-07-30T03:49:16;101018.41;;;16.48;72.82
36092;BME280;22147;52.388;13.390;2022-07-30T03:51:44;101018.69;;;16.43;73.86
36092;BME280;22147;52.388;13.390;2022-07-30T03:54:14;101021.69;;;16.34;75.06
36092;BME280;22147;52.388;13.390;2022-07-30T03:56:42;101012.34;;;16.30;74.34
36092;BME280;22147;52.388;13.390;2022-07-30T03:59:12;101014.69;;;16.28;74.46
36092;BME280;22147;52.388;13.390;2022-07-30T04:01:40;101021.28;;;16.36;74.67
36092;BME280;22147;52.388;13.390;2022-07-30T04:04:09;101025.00;;;16.40;74.63
36092;BME280;22147;52.388;13.390;2022-07-30T04:06:38;101026.09;;;16.35;75.28
36092;BME280;22147;52.388;13.390;2022-07-30T04:09:07;101028.25;;;16.26;75.51
36092;BME280;22147;52.388;13.390;2022-07-30T04:11:36;101035.66;;;16.18;75.86
36092;BME280;22147;52.388;13.390;2022-07-30T04:14:07;101032.38;;;16.16;75.46
36092;BME280;22147;52.388;13.390;2022-07-30T04:16:58;101038.38;;;16.31;75.60
36092;BME280;22147;52.388;13.390;2022-07-30T04:19:42;101033.88;;;16.42;75.82
36092;BME280;22147;52.388;13.390;2022-07-30T04:22:26;101040.47;;;16.49;74.81
36092;BME280;22147;52.388;13.390;2022-07-30T04:24:57;101039.28;;;16.51;74.23
36092;BME280;22147;52.388;13.390;2022-07-30T04:27:30;101038.31;;;16.43;75.78
36092;BME280;22147;52.388;13.390;2022-07-30T04:29:59;101041.47;;;16.41;75.79
36092;BME280;22147;52.388;13.390;2022-07-30T04:32:27;101045.28;;;16.49;74.80
36092;BME280;22147;52.388;13.390;2022-07-30T04:34:55;101045.63;;;16.63;75.63
36092;BME280;22147;52.388;13.390;2022-07-30T04:37:25;101040.13;;;16.67;77.47
36092;BME280;22147;52.388;13.390;2022-07-30T04:39:53;101046.38;;;16.60;77.52
36092;BME280;22147;52.388;13.390;2022-07-30T04:42:25;101046.47;;;16.64;78.77
36092;BME280;22147;52.388;13.390;2022-07-30T04:44:55;101043.38;;;16.69;76.71
36092;BME280;22147;52.388;13.390;2022-07-30T04:47:23;101039.13;;;16.75;78.68
36092;BME280;22147;52.388;13.390;2022-07-30T04:49:53;101041.66;;;16.80;78.53
36092;BME280;22147;52.388;13.390;2022-07-30T04:52:23;101042.66;;;16.88;75.74
36092;BME280;22147;52.388;13.390;2022-07-30T04:54:57;101042.78;;;16.92;76.63
36092;BME280;22147;52.388;13.390;2022-07-30T04:57:30;101039.66;;;16.97;75.88
36092;BME280;22147;52.388;13.390;2022-07-30T04:59:59;101046.09;;;16.97;74.72
36092;BME280;22147;52.388;13.390;2022-07-30T05:02:29;101044.47;;;16.96;76.62
36092;BME280;22147;52.388;13.390;2022-07-30T05:05:01;101038.88;;;16.96;74.61
36092;BME280;22147;52.388;13.390;2022-07-30T05:07:30;101042.13;;;16.98;74.25
36092;BME280;22147;52.388;13.390;2022-07-30T05:09:58;101044.72;;;17.07;73.44
36092;BME280;22147;52.388;13.390;2022-07-30T05:12:35;101040.56;;;17.17;72.81
36092;BME280;22147;52.388;13.390;2022-07-30T05:15:05;101040.56;;;17.17;74.55
36092;BME280;22147;52.388;13.390;2022-07-30T05:17:34;101037.81;;;17.20;73.55
36092;BME280;22147;52.388;13.390;2022-07-30T05:20:04;101044.25;;;17.21;72.85
36092;BME280;22147;52.388;13.390;2022-07-30T05:22:32;101038.25;;;17.22;71.50
36092;BME280;22147;52.388;13.390;2022-07-30T05:24:59;101039.38;;;17.18;73.01
36092;BME280;22147;52.388;13.390;2022-07-30T05:27:26;101034.66;;;17.22;72.29
36092;BME280;22147;52.388;13.390;2022-07-30T05:29:53;101029.94;;;17.26;71.28
36092;BME280;22147;52.388;13.390;2022-07-30T05:32:21;101032.88;;;17.33;71.69
36092;BME280;22147;52.388;13.390;2022-07-30T05:34:52;101034.66;;;17.41;70.55
36092;BME280;22147;52.388;13.390;2022-07-30T05:37:19;101038.47;;;17.49;70.76
36092;BME280;22147;52.388;13.390;2022-07-30T05:39:46;101044.53;;;17.51;70.76
36092;BME280;22147;52.388;13.390;2022-07-30T05:42:28;101044.88;;;17.49;70.15
36092;BME280;22147;52.388;13.390;2022-07-30T05:44:55;101043.28;;;17.48;70.85
36092;BME280;22147;52.388;13.390;2022-07-30T05:47:22;101044.59;;;17.55;72.77
36092;BME280;22147;52.388;13.390;2022-07-30T05:49:49;101049.56;;;17.61;70.56
36092;BME280;22147;52.388;13.390;2022-07-30T05:52:17;101055.00;;;17.74;70.28
36092;BME280;22147;52.388;13.390;2022-07-30T05:54:44;101047.41;;;17.74;70.91
36092;BME280;22147;52.388;13.390;2022-07-30T05:57:11;101057.00;;;17.73;71.43
36092;BME280;22147;52.388;13.390;2022-07-30T05:59:38;101056.56;;;17.71;70.86
36092;BME280;22147;52.388;13.390;2022-07-30T06:02:05;101050.38;;;17.81;70.97
36092;BME280;22147;52.388;13.390;2022-07-30T06:04:33;101061.53;;;17.78;69.86
36092;BME280;22147;52.388;13.390;2022-07-30T06:07:01;101052.38;;;17.81;68.91
36092;BME280;22147;52.388;13.390;2022-07-30T06:09:29;101053.31;;;17.69;69.44
36092;BME280;22147;52.388;13.390;2022-07-30T06:12:03;101055.91;;;17.78;70.93
36092;BME280;22147;52.388;13.390;2022-07-30T06:14:32;101052.28;;;17.77;68.39
36092;BME280;22147;52.388;13.390;2022-07-30T06:16:59;101060.34;;;17.79;68.65
36092;BME280;22147;52.388;13.390;2022-07-30T06:19:27;101060.00;;;17.80;69.77
36092;BME280;22147;52.388;13.390;2022-07-30T06:21:54;101059.41;;;17.90;68.38
36092;BME280;22147;52.388;13.390;2022-07-30T06:24:33;101058.53;;;18.06;68.76
36092;BME280;22147;52.388;13.390;2022-07-30T06:27:00;101055.59;;;18.22;67.64
36092;BME280;22147;52.388;13.390;2022-07-30T06:29:28;101051.69;;;18.49;66.81
36092;BME280;22147;52.388;13.390;2022-07-30T06:31:55;101061.38;;;18.75;67.57
36092;BME280;22147;52.388;13.390;2022-07-30T06:34:22;101064.63;;;19.00;67.04
36092;BME280;22147;52.388;13.390;2022-07-30T06:36:49;101071.03;;;19.24;66.88
36092;BME280;22147;52.388;13.390;2022-07-30T06:39:17;101057.00;;;19.27;63.79
36092;BME280;22147;52.388;13.390;2022-07-30T06:42:04;101070.06;;;19.12;63.97
36092;BME280;22147;52.388;13.390;2022-07-30T06:44:32;101068.13;;;19.17;65.67
36092;BME280;22147;52.388;13.390;2022-07-30T06:46:59;101069.41;;;19.23;65.70
36092;BME280;22147;52.388;13.390;2022-07-30T06:49:35;101070.00;;;19.09;63.18
36092;BME280;22147;52.388;13.390;2022-07-30T06:52:04;101071.91;;;19.01;64.21
36092;BME280;22147;52.388;13.390;2022-07-30T06:54:31;101076.41;;;19.06;64.13
36092;BME280;22147;52.388;13.390;2022-07-30T06:56:58;101077.47;;;18.98;64.18
36092;BME280;22147;52.388;13.390;2022-07-30T06:59:26;101089.25;;;19.07;64.87
36092;BME280;22147;52.388;13.390;2022-07-30T07:01:53;101081.69;;;19.11;64.00
36092;BME280;22147;52.388;13.390;2022-07-30T07:04:20;101083.81;;;19.18;65.06
36092;BME280;22147;52.388;13.390;2022-07-30T07:06:48;101089.34;;;19.37;63.63
36092;BME280;22147;52.388;13.390;2022-07-30T07:09:15;101096.00;;;19.52;64.96
36092;BME280;22147;52.388;13.390;2022-07-30T07:11:42;101081.84;;;19.48;63.41
36092;BME280;22147;52.388;13.390;2022-07-30T07:14:09;101080.06;;;19.37;62.16
36092;BME280;22147;52.388;13.390;2022-07-30T07:16:37;101083.28;;;19.35;64.85
36092;BME280;22147;52.388;13.390;2022-07-30T07:19:04;101083.50;;;19.49;63.90
36092;BME280;22147;52.388;13.390;2022-07-30T07:21:31;101077.47;;;19.51;63.16
36092;BME280;22147;52.388;13.390;2022-07-30T07:23:58;101078.81;;;19.61;63.52
36092;BME280;22147;52.388;13.390;2022-07-30T07:26:30;101077.34;;;19.70;63.50
36092;BME280;22147;52.388;13.390;2022-07-30T07:28:58;101082.44;;;19.61;64.55
36092;BME280;22147;52.388;13.390;2022-07-30T07:31:30;101081.03;;;19.75;62.45
36092;BME280;22147;52.388;13.390;2022-07-30T07:34:18;101079.97;;;19.86;62.31
36092;BME280;22147;52.388;13.390;2022-07-30T07:36:45;101075.44;;;19.78;61.73
36092;BME280;22147;52.388;13.390;2022-07-30T07:39:12;101076.38;;;19.89;62.92
36092;BME280;22147;52.388;13.390;2022-07-30T07:41:40;101075.69;;;20.00;62.13
36092;BME280;22147;52.388;13.390;2022-07-30T07:44:15;101081.88;;;20.09;61.65
36092;BME280;22147;52.388;13.390;2022-07-30T07:46:42;101078.09;;;19.98;60.67
36092;BME280;22147;52.388;13.390;2022-07-30T07:49:09;101082.56;;;19.99;61.73
36092;BME280;22147;52.388;13.390;2022-07-30T07:51:36;101093.53;;;20.07;60.41
36092;BME280;22147;52.388;13.390;2022-07-30T07:54:15;101091.13;;;20.09;61.48
36092;BME280;22147;52.388;13.390;2022-07-30T07:56:51;101084.56;;;20.32;62.17
36092;BME280;22147;52.388;13.390;2022-07-30T07:59:22;101089.88;;;20.41;60.34
36092;BME280;22147;52.388;13.390;2022-07-30T08:02:06;101087.69;;;20.61;61.78
36092;BME280;22147;52.388;13.390;2022-07-30T08:04:34;101084.91;;;20.68;59.02
36092;BME280;22147;52.388;13.390;2022-07-30T08:07:02;101089.78;;;20.71;59.26
36092;BME280;22147;52.388;13.390;2022-07-30T08:09:30;101091.06;;;20.77;57.95
36092;BME280;22147;52.388;13.390;2022-07-30T08:12:12;101087.13;;;20.89;59.20
36092;BME280;22147;52.388;13.390;2022-07-30T08:14:40;101088.94;;;20.67;59.00
36092;BME280;22147;52.388;13.390;2022-07-30T08:17:08;101091.09;;;20.84;58.75
36092;BME280;22147;52.388;13.390;2022-07-30T08:19:35;101088.28;;;20.84;57.93
36092;BME280;22147;52.388;13.390;2022-07-30T08:22:02;101085.09;;;20.86;58.81
36092;BME280;22147;52.388;13.390;2022-07-30T08:24:29;101089.63;;;20.98;58.09
36092;BME280;22147;52.388;13.390;2022-07-30T08:26:57;101083.19;;;21.01;58.43
36092;BME280;22147;52.388;13.390;2022-07-30T08:29:24;101081.66;;;21.10;57.17
36092;BME280;22147;52.388;13.390;2022-07-30T08:31:52;101081.66;;;21.14;58.70
36092;BME280;22147;52.388;13.390;2022-07-30T08:34:19;101083.28;;;21.11;58.80
36092;BME280;22147;52.388;13.390;2022-07-30T08:36:51;101080.94;;;21.24;57.94
36092;BME280;22147;52.388;13.390;2022-07-30T08:39:18;101085.09;;;21.41;56.39
36092;BME280;22147;52.388;13.390;2022-07-30T08:41:47;101087.91;;;21.41;57.03
36092;BME280;22147;52.388;13.390;2022-07-30T08:44:17;101083.56;;;21.51;56.94
36092;BME280;22147;52.388;13.390;2022-07-30T08:46:46;101087.88;;;21.34;55.54
36092;BME280;22147;52.388;13.390;2022-07-30T08:49:18;101087.59;;;21.46;57.85
36092;BME280;22147;52.388;13.390;2022-07-30T08:51:45;101089.66;;;21.60;58.75
36092;BME280;22147;52.388;13.390;2022-07-30T08:54:14;101084.44;;;21.62;57.46
36092;BME280;22147;52.388;13.390;2022-07-30T08:56:43;101086.00;;;21.56;58.43
36092;BME280;22147;52.388;13.390;2022-07-30T08:59:11;101089.63;;;21.57;57.27
36092;BME280;22147;52.388;13.390;2022-07-30T09:01:38;101088.91;;;21.63;58.32
36092;BME280;22147;52.388;13.390;2022-07-30T09:04:05;101084.50;;;21.73;57.27
36092;BME280;22147;52.388;13.390;2022-07-30T09:06:33;101077.56;;;21.60;57.74
36092;BME280;22147;52.388;13.390;2022-07-30T09:09:02;101080.44;;;21.70;57.00
36092;BME280;22147;52.388;13.390;2022-07-30T09:11:33;101082.50;;;21.81;56.46
36092;BME280;22147;52.388;13.390;2022-07-30T09:14:11;101085.00;;;21.96;55.87
36092;BME280;22147;52.388;13.390;2022-07-30T09:16:40;101090.97;;;21.77;55.95
36092;BME280;22147;52.388;13.390;2022-07-30T09:19:16;101084.13;;;21.82;56.77
36092;BME280;22147;52.388;13.390;2022-07-30T09:22:00;101088.03;;;21.55;56.34
36092;BME280;22147;52.388;13.390;2022-07-30T09:24:41;101082.25;;;21.41;57.50
36092;BME280;22147;52.388;13.390;2022-07-30T09:27:11;101083.22;;;21.60;56.51
36092;BME280;22147;52.388;13.390;2022-07-30T09:29:38;101077.63;;;21.78;56.24
36092;BME280;22147;52.388;13.390;2022-07-30T09:32:07;101081.72;;;21.80;59.00
36092;BME280;22147;52.388;13.390;2022-07-30T09:34:38;101080.91;;;21.83;58.36
36092;BME280;22147;52.388;13.390;2022-07-30T09:39:41;101077.34;;;22.01;56.25
36092;BME280;22147;52.388;13.390;2022-07-30T09:42:27;101078.19;;;22.08;56.88
36092;BME280;22147;52.388;13.390;2022-07-30T09:45:14;101079.88;;;22.24;55.99
36092;BME280;22147;52.388;13.390;2022-07-30T09:47:44;101071.31;;;22.20;56.01
36092;BME280;22147;52.388;13.390;2022-07-30T09:50:18;101081.91;;;22.30;56.87
36092;BME280;22147;52.388;13.390;2022-07-30T09:53:07;101080.63;;;22.17;56.44
36092;BME280;22147;52.388;13.390;2022-07-30T09:55:38;101076.66;;;22.29;57.15
36092;BME280;22147;52.388;13.390;2022-07-30T09:58:10;101078.34;;;22.59;56.38
36092;BME280;22147;52.388;13.390;2022-07-30T10:00:44;101068.63;;;22.99;55.12
36092;BME280;22147;52.388;13.390;2022-07-30T10:03:19;101075.09;;;23.17;55.58
36092;BME280;22147;52.388;13.390;2022-07-30T10:06:04;101068.22;;;23.15;52.87
36092;BME280;22147;52.388;13.390;2022-07-30T10:08:43;101073.44;;;23.52;52.99
36092;BME280;22147;52.388;13.390;2022-07-30T10:11:20;101073.34;;;23.88;52.09
36092;BME280;22147;52.388;13.390;2022-07-30T10:13:55;101073.28;;;23.95;50.88
36092;BME280;22147;52.388;13.390;2022-07-30T10:16:27;101083.09;;;23.84;50.53
36092;BME280;22147;52.388;13.390;2022-07-30T10:18:56;101078.66;;;23.65;50.46
36092;BME280;22147;52.388;13.390;2022-07-30T10:21:27;101073.03;;;23.54;50.46
36092;BME280;22147;52.388;13.390;2022-07-30T10:24:01;101074.22;;;23.60;50.03
36092;BME280;22147;52.388;13.390;2022-07-30T10:26:33;101078.63;;;23.83;49.85
36092;BME280;22147;52.388;13.390;2022-07-30T10:29:03;101076.66;;;23.54;51.66
36092;BME280;22147;52.388;13.390;2022-07-30T10:31:31;101077.50;;;23.48;50.47
36092;BME280;22147;52.388;13.390;2022-07-30T10:34:18;101082.34;;;23.58;51.18
36092;BME280;22147;52.388;13.390;2022-07-30T10:36:58;101083.59;;;23.35;52.31
36092;BME280;22147;52.388;13.390;2022-07-30T10:39:56;101076.66;;;23.47;50.77
36092;BME280;22147;52.388;13.390;2022-07-30T10:43:05;101076.28;;;23.42;53.49
36092;BME280;22147;52.388;13.390;2022-07-30T10:47:01;101076.25;;;23.49;51.08
36092;BME280;22147;52.388;13.390;2022-07-30T10:49:35;101071.38;;;23.60;50.50
36092;BME280;22147;52.388;13.390;2022-07-30T10:52:09;101076.19;;;23.85;51.12
36092;BME280;22147;52.388;13.390;2022-07-30T10:54:42;101077.81;;;23.68;51.23
36092;BME280;22147;52.388;13.390;2022-07-30T10:57:20;101070.13;;;23.79;51.01
36092;BME280;22147;52.388;13.390;2022-07-30T11:02:30;101066.28;;;24.22;49.75
36092;BME280;22147;52.388;13.390;2022-07-30T11:05:33;101069.38;;;24.45;49.09
36092;BME280;22147;52.388;13.390;2022-07-30T11:11:04;101068.19;;;24.98;48.17
36092;BME280;22147;52.388;13.390;2022-07-30T11:14:07;101073.75;;;25.13;46.31
36092;BME280;22147;52.388;13.390;2022-07-30T11:19:08;101055.97;;;25.02;45.37
36092;BME280;22147;52.388;13.390;2022-07-30T11:22:38;101063.47;;;25.26;45.96
36092;BME280;22147;52.388;13.390;2022-07-30T11:25:36;101063.44;;;25.30;44.72
36092;BME280;22147;52.388;13.390;2022-07-30T11:28:42;101056.03;;;24.98;47.24
36092;BME280;22147;52.388;13.390;2022-07-30T11:31:35;101058.31;;;25.10;45.22
36092;BME280;22147;52.388;13.390;2022-07-30T11:34:26;101056.63;;;25.20;45.38
36092;BME280;22147;52.388;13.390;2022-07-30T11:37:09;101052.66;;;25.52;45.68
36092;BME280;22147;52.388;13.390;2022-07-30T11:42:33;101062.09;;;25.42;43.53
36092;BME280;22147;52.388;13.390;2022-07-30T11:47:54;101060.25;;;25.24;44.14
36092;BME280;22147;52.388;13.390;2022-07-30T11:50:30;101061.13;;;25.14;44.73
36092;BME280;22147;52.388;13.390;2022-07-30T11:53:06;101056.72;;;25.09;44.00
36092;BME280;22147;52.388;13.390;2022-07-30T11:55:49;101062.25;;;25.27;42.83
36092;BME280;22147;52.388;13.390;2022-07-30T11:58:36;101059.06;;;25.18;43.33
36092;BME280;22147;52.388;13.390;2022-07-30T12:01:13;101058.25;;;25.59;43.61
36092;BME280;22147;52.388;13.390;2022-07-30T12:03:44;101057.66;;;25.75;42.15
36092;BME280;22147;52.388;13.390;2022-07-30T12:06:14;101060.72;;;25.57;40.33
36092;BME280;22147;52.388;13.390;2022-07-30T12:08:52;101052.03;;;25.33;41.24
36092;BME280;22147;52.388;13.390;2022-07-30T12:11:31;101053.88;;;25.51;41.08
36092;BME280;22147;52.388;13.390;2022-07-30T12:14:01;101050.81;;;25.69;40.68
36092;BME280;22147;52.388;13.390;2022-07-30T12:16:31;101070.84;;;25.96;40.07
36092;BME280;22147;52.388;13.390;2022-07-30T12:19:05;101067.22;;;25.92;40.36
36092;BME280;22147;52.388;13.390;2022-07-30T12:21:35;101058.06;;;25.39;42.13
36092;BME280;22147;52.388;13.390;2022-07-30T12:24:05;101063.34;;;25.41;42.50
36092;BME280;22147;52.388;13.390;2022-07-30T12:26:39;101064.88;;;25.49;38.79
36092;BME280;22147;52.388;13.390;2022-07-30T12:29:08;101066.97;;;25.41;39.04
36092;BME280;22147;52.388;13.390;2022-07-30T12:31:39;101061.09;;;25.59;40.40
36092;BME280;22147;52.388;13.390;2022-07-30T12:34:25;101064.66;;;25.67;40.09
36092;BME280;22147;52.388;13.390;2022-07-30T12:36:53;101066.34;;;25.60;39.87
36092;BME280;22147;52.388;13.390;2022-07-30T12:39:25;101061.88;;;25.25;40.90
36092;BME280;22147;52.388;13.390;2022-07-30T12:41:54;101061.69;;;25.43;41.54
36092;BME280;22147;52.388;13.390;2022-07-30T12:44:42;101056.72;;;25.51;42.61
36092;BME280;22147;52.388;13.390;2022-07-30T12:47:24;101061.66;;;25.81;38.44
36092;BME280;22147;52.388;13.390;2022-07-30T12:49:57;101059.22;;;25.79;38.63
36092;BME280;22147;52.388;13.390;2022-07-30T12:52:33;101059.16;;;25.87;40.77
36092;BME280;22147;52.388;13.390;2022-07-30T12:55:11;101057.03;;;25.60;39.63
36092;BME280;22147;52.388;13.390;2022-07-30T13:03:24;101051.03;;;25.85;34.57
36092;BME280;22147;52.388;13.390;2022-07-30T13:05:55;101052.25;;;25.84;38.19
36092;BME280;22147;52.388;13.390;2022-07-30T13:08:54;101057.44;;;25.93;39.36
36092;BME280;22147;52.388;13.390;2022-07-30T13:11:44;101057.59;;;26.13;37.95
36092;BME280;22147;52.388;13.390;2022-07-30T13:14:15;101057.88;;;26.22;38.52
36092;BME280;22147;52.388;13.390;2022-07-30T13:16:43;101051.72;;;26.27;36.92
36092;BME280;22147;52.388;13.390;2022-07-30T13:19:11;101048.78;;;26.31;37.07
36092;BME280;22147;52.388;13.390;2022-07-30T13:21:40;101051.81;;;26.47;37.66
36092;BME280;22147;52.388;13.390;2022-07-30T13:24:17;101044.28;;;26.60;37.96
36092;BME280;22147;52.388;13.390;2022-07-30T13:26:45;101051.25;;;26.56;36.60
36092;BME280;22147;52.388;13.390;2022-07-30T13:29:13;101049.13;;;26.36;36.25
36092;BME280;22147;52.388;13.390;2022-07-30T13:31:41;101052.56;;;26.51;36.58